createdAt,value
2017-05-07T00:00:39.859Z,0.00
2017-05-07T00:01:39.833Z,0.00
2017-05-07T00:02:34.786Z,0.00
2017-05-07T00:03:34.302Z,0.00
2017-05-07T00:04:34.216Z,0.00
2017-05-07T00:05:29.210Z,0.00
2017-05-07T00:06:23.755Z,0.00
2017-05-07T00:07:12.224Z,0.00
2017-05-07T00:07:59.821Z,0.00
2017-05-07T00:08:49.063Z,0.00
2017-05-07T00:09:54.247Z,0.00
2017-05-07T00:10:48.259Z,0.00
2017-05-07T00:11:43.181Z,0.00
2017-05-07T00:12:37.689Z,0.00
2017-05-07T00:13:37.228Z,0.00
2017-05-07T00:14:37.124Z,0.00
2017-05-07T00:15:37.113Z,0.00
2017-05-07T00:16:38.084Z,0.00
2017-05-07T00:17:37.625Z,0.00
2017-05-07T00:18:32.617Z,0.00
2017-05-07T00:19:32.168Z,0.00
2017-05-07T00:20:26.057Z,0.00
2017-05-07T00:21:20.967Z,0.00
2017-05-07T00:22:20.539Z,0.00
2017-05-07T00:23:16.455Z,0.00
2017-05-07T00:24:21.627Z,0.00
2017-05-07T00:25:15.949Z,0.00
2017-05-07T00:26:10.449Z,0.00
2017-05-07T00:27:04.969Z,0.00
2017-05-07T00:28:04.529Z,0.00
2017-05-07T00:28:59.531Z,0.00
2017-05-07T00:29:59.025Z,0.00
2017-05-07T00:30:54.939Z,0.00
2017-05-07T00:31:47.954Z,0.00
2017-05-07T00:32:47.464Z,0.00
2017-05-07T00:33:41.396Z,0.00
2017-05-07T00:34:41.309Z,0.00
2017-05-07T00:35:41.319Z,0.00
2017-05-07T00:36:41.238Z,0.00
2017-05-07T00:37:36.251Z,0.00
2017-05-07T00:38:35.736Z,0.00
2017-05-07T00:39:35.720Z,0.00
2017-05-07T00:40:29.669Z,0.00
2017-05-07T00:41:17.615Z,0.00
2017-05-07T00:42:05.600Z,0.00
2017-05-07T00:42:53.573Z,0.00
2017-05-07T00:43:41.543Z,0.00
2017-05-07T00:44:36.482Z,0.00
2017-05-07T00:45:41.952Z,0.00
2017-05-07T00:46:41.941Z,0.00
2017-05-07T00:47:42.253Z,0.00
2017-05-07T00:48:41.852Z,0.00
2017-05-07T00:49:42.310Z,0.00
2017-05-07T00:50:41.733Z,0.00
2017-05-07T00:51:35.723Z,0.00
2017-05-07T00:52:29.628Z,0.00
2017-05-07T00:53:29.641Z,0.00
2017-05-07T00:54:24.590Z,0.00
2017-05-07T00:55:19.109Z,0.00
2017-05-07T00:56:18.580Z,0.00
2017-05-07T00:57:18.605Z,0.00
2017-05-07T00:58:12.570Z,0.00
2017-05-07T00:59:13.028Z,0.00
2017-05-07T01:00:06.430Z,0.00
2017-05-07T01:01:00.390Z,0.00
2017-05-07T01:01:55.346Z,0.00
2017-05-07T01:02:54.869Z,0.00
2017-05-07T01:03:43.865Z,0.00
2017-05-07T01:04:49.678Z,0.00
2017-05-07T01:05:44.348Z,0.00
2017-05-07T01:06:43.869Z,0.00
2017-05-07T01:07:43.800Z,0.00
2017-05-07T01:08:37.776Z,0.00
2017-05-07T01:09:32.731Z,0.00
2017-05-07T01:10:27.265Z,0.00
2017-05-07T01:11:21.774Z,0.00
2017-05-07T01:12:16.313Z,0.00
2017-05-07T01:13:15.831Z,0.00
2017-05-07T01:14:10.727Z,0.00
2017-05-07T01:15:10.306Z,0.00
2017-05-07T01:16:04.295Z,0.00
2017-05-07T01:16:59.228Z,0.00
2017-05-07T01:17:58.739Z,0.00
2017-05-07T01:18:52.694Z,0.00
2017-05-07T01:19:53.654Z,0.00
2017-05-07T01:20:48.193Z,0.00
2017-05-07T01:21:41.765Z,0.00
2017-05-07T01:22:30.637Z,0.00
2017-05-07T01:23:24.162Z,0.00
2017-05-07T01:24:18.137Z,0.00
2017-05-07T01:25:18.145Z,0.00
2017-05-07T01:26:13.021Z,0.00
2017-05-07T01:27:12.555Z,0.00
2017-05-07T01:28:06.542Z,0.00
2017-05-07T01:29:08.104Z,0.00
2017-05-07T01:30:06.935Z,0.00
2017-05-07T01:31:06.943Z,0.00
2017-05-07T01:32:01.912Z,0.00
2017-05-07T01:32:56.475Z,0.00
2017-05-07T01:33:50.945Z,0.00
2017-05-07T01:34:44.440Z,0.00
2017-05-07T01:35:44.499Z,0.00
2017-05-07T01:36:38.390Z,0.00
2017-05-07T01:37:38.349Z,0.00
2017-05-07T01:38:33.333Z,0.00
2017-05-07T01:39:38.849Z,0.00
2017-05-07T01:40:32.871Z,0.00
2017-05-07T01:41:32.727Z,0.00
2017-05-07T01:42:21.747Z,0.00
2017-05-07T01:43:21.197Z,0.00
2017-05-07T01:44:21.834Z,0.00
2017-05-07T01:45:15.138Z,0.00
2017-05-07T01:46:09.118Z,0.00
2017-05-07T01:47:09.036Z,0.00
2017-05-07T01:48:04.017Z,0.00
2017-05-07T01:48:58.526Z,0.00
2017-05-07T01:49:53.066Z,0.00
2017-05-07T01:50:52.573Z,0.00
2017-05-07T01:51:46.542Z,0.00
2017-05-07T01:52:46.471Z,0.00
2017-05-07T01:53:40.457Z,0.00
2017-05-07T01:54:46.323Z,0.00
2017-05-07T01:55:40.752Z,0.00
2017-05-07T01:56:40.371Z,0.00
2017-05-07T01:57:40.272Z,0.00
2017-05-07T01:58:40.223Z,0.00
2017-05-07T01:59:34.190Z,0.00
2017-05-07T02:00:34.130Z,0.00
2017-05-07T02:01:28.131Z,0.00
2017-05-07T02:02:23.101Z,0.00
2017-05-07T02:03:17.551Z,0.00
2017-05-07T02:04:06.136Z,0.00
2017-05-07T02:04:59.668Z,0.00
2017-05-07T02:05:54.601Z,0.00
2017-05-07T02:06:54.162Z,0.00
2017-05-07T02:07:54.070Z,0.00
2017-05-07T02:08:48.010Z,0.00
2017-05-07T02:09:43.470Z,0.00
2017-05-07T02:10:42.468Z,0.00
2017-05-07T02:11:42.439Z,0.00
2017-05-07T02:12:36.534Z,0.00
2017-05-07T02:13:36.354Z,0.00
2017-05-07T02:14:30.371Z,0.00
2017-05-07T02:15:31.259Z,0.00
2017-05-07T02:16:30.838Z,0.00
2017-05-07T02:17:30.784Z,0.00
2017-05-07T02:18:25.698Z,0.00
2017-05-07T02:19:20.257Z,0.00
2017-05-07T02:20:14.794Z,0.00
2017-05-07T02:21:14.314Z,0.00
2017-05-07T02:22:08.250Z,0.00
2017-05-07T02:23:08.221Z,0.00
2017-05-07T02:24:03.176Z,0.00
2017-05-07T02:25:02.767Z,0.00
2017-05-07T02:25:57.655Z,0.00
2017-05-07T02:26:52.144Z,0.00
2017-05-07T02:27:51.661Z,0.00
2017-05-07T02:28:45.626Z,0.00
2017-05-07T02:29:39.645Z,0.00
2017-05-07T02:30:33.550Z,0.00
2017-05-07T02:31:33.460Z,0.00
2017-05-07T02:32:22.430Z,0.00
2017-05-07T02:33:17.029Z,0.00
2017-05-07T02:34:16.441Z,0.00
2017-05-07T02:35:16.473Z,0.00
2017-05-07T02:36:10.400Z,0.00
2017-05-07T02:37:04.373Z,0.00
2017-05-07T02:38:04.337Z,0.00
2017-05-07T02:38:59.326Z,0.00
2017-05-07T02:39:53.859Z,0.00
2017-05-07T02:40:48.371Z,0.00
2017-05-07T02:41:47.876Z,0.00
2017-05-07T02:42:42.867Z,0.00
2017-05-07T02:43:42.319Z,0.00
2017-05-07T02:44:42.975Z,0.00
2017-05-07T02:45:37.235Z,0.00
2017-05-07T02:46:36.822Z,0.00
2017-05-07T02:47:36.741Z,0.00
2017-05-07T02:48:36.624Z,0.00
2017-05-07T02:49:30.629Z,0.00
2017-05-07T02:50:30.566Z,0.00
2017-05-07T02:51:25.525Z,0.00
2017-05-07T02:52:25.404Z,0.00
2017-05-07T02:53:25.006Z,0.00
2017-05-07T02:54:19.957Z,0.00
2017-05-07T02:55:19.459Z,0.00
2017-05-07T02:56:08.411Z,0.00
2017-05-07T02:57:07.957Z,0.00
2017-05-07T02:58:07.980Z,0.00
2017-05-07T02:59:03.231Z,0.00
2017-05-07T03:00:02.450Z,0.00
2017-05-07T03:00:56.373Z,0.00
2017-05-07T03:01:51.377Z,0.00
2017-05-07T03:02:50.787Z,0.00
2017-05-07T03:03:50.839Z,0.00
2017-05-07T03:04:45.077Z,0.00
2017-05-07T03:05:39.737Z,0.00
2017-05-07T03:06:39.237Z,0.00
2017-05-07T03:07:34.214Z,0.00
2017-05-07T03:08:39.699Z,0.00
2017-05-07T03:09:39.655Z,0.00
2017-05-07T03:10:33.613Z,0.00
2017-05-07T03:11:27.555Z,0.00
2017-05-07T03:12:21.517Z,0.00
2017-05-07T03:13:15.490Z,0.00
2017-05-07T03:14:15.558Z,0.00
2017-05-07T03:15:09.376Z,0.00
2017-05-07T03:16:09.336Z,0.00
2017-05-07T03:17:04.749Z,0.00
2017-05-07T03:17:58.802Z,0.00
2017-05-07T03:18:58.335Z,0.00
2017-05-07T03:19:59.293Z,0.00
2017-05-07T03:20:54.390Z,0.00
2017-05-07T03:21:48.392Z,0.00
2017-05-07T03:22:42.842Z,0.00
2017-05-07T03:23:42.438Z,0.00
2017-05-07T03:24:37.313Z,0.00
2017-05-07T03:25:36.866Z,0.00
2017-05-07T03:26:30.838Z,0.00
2017-05-07T03:27:24.821Z,0.00
2017-05-07T03:28:18.772Z,0.00
2017-05-07T03:29:18.749Z,0.00
2017-05-07T03:30:12.710Z,0.00
2017-05-07T03:31:12.627Z,0.00
2017-05-07T03:32:07.557Z,0.00
2017-05-07T03:33:02.135Z,0.00
2017-05-07T03:34:02.384Z,0.00
2017-05-07T03:34:55.613Z,0.00
2017-05-07T03:35:50.533Z,0.00
2017-05-07T03:36:50.042Z,0.00
2017-05-07T03:37:39.072Z,0.00
2017-05-07T03:38:32.609Z,0.00
2017-05-07T03:39:21.500Z,0.00
2017-05-07T03:40:15.027Z,0.00
2017-05-07T03:41:09.021Z,0.00
2017-05-07T03:42:02.944Z,0.00
2017-05-07T03:43:02.915Z,0.00
2017-05-07T03:44:03.465Z,0.00
2017-05-07T03:44:57.788Z,0.00
2017-05-07T03:45:52.290Z,0.00
2017-05-07T03:46:46.802Z,0.00
2017-05-07T03:47:46.378Z,0.00
2017-05-07T03:48:41.350Z,0.00
2017-05-07T03:49:40.842Z,0.00
2017-05-07T03:50:35.826Z,0.01
2017-05-07T03:51:24.363Z,0.01
2017-05-07T03:52:18.818Z,0.01
2017-05-07T03:53:13.363Z,0.01
2017-05-07T03:54:06.943Z,0.01
2017-05-07T03:55:01.859Z,0.01
2017-05-07T03:55:56.399Z,0.01
2017-05-07T03:56:49.931Z,0.01
2017-05-07T03:57:43.860Z,0.01
2017-05-07T03:58:44.838Z,0.01
2017-05-07T03:59:45.328Z,0.01
2017-05-07T04:00:39.835Z,0.01
2017-05-07T04:01:33.360Z,0.01
2017-05-07T04:02:22.325Z,0.02
2017-05-07T04:03:15.865Z,0.02
2017-05-07T04:04:03.795Z,0.02
2017-05-07T04:04:52.033Z,0.02
2017-05-07T04:05:45.743Z,0.02
2017-05-07T04:06:34.725Z,0.02
2017-05-07T04:07:40.264Z,0.02
2017-05-07T04:08:34.187Z,0.02
2017-05-07T04:09:40.173Z,0.02
2017-05-07T04:10:34.135Z,0.02
2017-05-07T04:11:29.068Z,0.02
2017-05-07T04:12:23.586Z,0.02
2017-05-07T04:13:18.146Z,0.02
2017-05-07T04:14:12.654Z,0.02
2017-05-07T04:15:12.140Z,0.03
2017-05-07T04:16:06.140Z,0.03
2017-05-07T04:17:06.045Z,0.03
2017-05-07T04:18:01.007Z,0.03
2017-05-07T04:19:01.179Z,0.03
2017-05-07T04:19:49.513Z,0.03
2017-05-07T04:20:37.039Z,0.03
2017-05-07T04:21:26.063Z,0.03
2017-05-07T04:22:19.977Z,0.03
2017-05-07T04:23:20.513Z,0.04
2017-05-07T04:24:20.471Z,0.04
2017-05-07T04:25:13.921Z,0.04
2017-05-07T04:26:07.926Z,0.04
2017-05-07T04:27:02.261Z,0.04
2017-05-07T04:27:50.847Z,0.04
2017-05-07T04:28:45.341Z,0.04
2017-05-07T04:29:44.901Z,0.04
2017-05-07T04:30:44.815Z,0.05
2017-05-07T04:31:27.897Z,0.05
2017-05-07T04:32:27.328Z,0.05
2017-05-07T04:33:15.626Z,0.05
2017-05-07T04:34:04.603Z,0.05
2017-05-07T04:34:58.778Z,0.05
2017-05-07T04:35:53.331Z,0.05
2017-05-07T04:36:47.011Z,0.05
2017-05-07T04:37:35.847Z,0.05
2017-05-07T04:38:30.681Z,0.05
2017-05-07T04:39:23.872Z,0.05
2017-05-07T04:40:07.315Z,0.06
2017-05-07T04:40:55.911Z,0.06
2017-05-07T04:41:48.959Z,0.06
2017-05-07T04:42:37.974Z,0.06
2017-05-07T04:43:26.676Z,0.06
2017-05-07T04:44:25.880Z,0.06
2017-05-07T04:45:19.849Z,0.06
2017-05-07T04:46:14.835Z,0.06
2017-05-07T04:47:14.289Z,0.06
2017-05-07T04:48:09.564Z,0.07
2017-05-07T04:49:08.785Z,0.07
2017-05-07T04:49:57.743Z,0.07
2017-05-07T04:50:52.298Z,0.07
2017-05-07T04:51:45.808Z,0.07
2017-05-07T04:52:40.246Z,0.07
2017-05-07T04:53:39.753Z,0.07
2017-05-07T04:54:35.319Z,0.07
2017-05-07T04:55:29.235Z,0.07
2017-05-07T04:56:23.788Z,0.08
2017-05-07T04:57:23.239Z,0.08
2017-05-07T04:58:18.450Z,0.08
2017-05-07T04:59:17.781Z,0.08
2017-05-07T05:00:06.703Z,0.09
2017-05-07T05:00:55.808Z,0.08
2017-05-07T05:01:43.741Z,0.08
2017-05-07T05:02:43.758Z,0.08
2017-05-07T05:03:37.275Z,0.08
2017-05-07T05:04:20.232Z,0.08
2017-05-07T05:05:14.743Z,0.09
2017-05-07T05:06:08.353Z,0.09
2017-05-07T05:07:02.218Z,0.09
2017-05-07T05:07:50.388Z,0.10
2017-05-07T05:08:44.202Z,0.10
2017-05-07T05:09:38.503Z,0.10
2017-05-07T05:10:32.036Z,0.09
2017-05-07T05:11:21.007Z,0.09
2017-05-07T05:12:14.569Z,0.10
2017-05-07T05:13:03.518Z,0.10
2017-05-07T05:14:03.808Z,0.10
2017-05-07T05:14:51.239Z,0.10
2017-05-07T05:15:40.383Z,0.10
2017-05-07T05:16:34.070Z,0.09
2017-05-07T05:17:21.456Z,0.09
2017-05-07T05:18:16.409Z,0.10
2017-05-07T05:19:09.949Z,0.10
2017-05-07T05:19:53.213Z,0.10
2017-05-07T05:20:40.422Z,0.11
2017-05-07T05:21:34.452Z,0.11
2017-05-07T05:22:29.332Z,0.11
2017-05-07T05:23:22.853Z,0.11
2017-05-07T05:24:16.825Z,0.11
2017-05-07T05:25:04.879Z,0.11
2017-05-07T05:25:52.958Z,0.11
2017-05-07T05:26:46.948Z,0.11
2017-05-07T05:27:40.805Z,0.11
2017-05-07T05:28:29.623Z,0.11
2017-05-07T05:29:23.214Z,0.11
2017-05-07T05:30:12.208Z,0.11
2017-05-07T05:31:06.127Z,0.11
2017-05-07T05:31:59.634Z,0.11
2017-05-07T05:32:54.053Z,0.10
2017-05-07T05:33:41.580Z,0.11
2017-05-07T05:34:37.148Z,0.11
2017-05-07T05:35:31.071Z,0.11
2017-05-07T05:36:24.643Z,0.11
2017-05-07T05:37:18.590Z,0.10
2017-05-07T05:38:06.532Z,0.11
2017-05-07T05:38:55.476Z,0.11
2017-05-07T05:39:49.051Z,0.11
2017-05-07T05:40:37.017Z,0.12
2017-05-07T05:41:36.979Z,0.11
2017-05-07T05:42:30.925Z,0.11
2017-05-07T05:43:19.808Z,0.11
2017-05-07T05:44:08.443Z,0.11
2017-05-07T05:45:07.931Z,0.11
2017-05-07T05:45:56.940Z,0.11
2017-05-07T05:46:50.482Z,0.11
2017-05-07T05:47:39.644Z,0.11
2017-05-07T05:48:26.888Z,0.11
2017-05-07T05:49:20.908Z,0.11
2017-05-07T05:50:08.821Z,0.10
2017-05-07T05:51:02.856Z,0.10
2017-05-07T05:51:57.979Z,0.10
2017-05-07T05:52:51.726Z,0.11
2017-05-07T05:53:45.255Z,0.11
2017-05-07T05:54:45.492Z,0.12
2017-05-07T05:55:39.309Z,0.13
2017-05-07T05:56:34.147Z,0.14
2017-05-07T05:57:34.174Z,0.15
2017-05-07T05:58:23.147Z,0.16
2017-05-07T05:59:22.372Z,0.16
2017-05-07T06:00:16.174Z,0.16
2017-05-07T06:01:04.578Z,0.16
2017-05-07T06:01:53.476Z,0.17
2017-05-07T06:02:47.937Z,0.16
2017-05-07T06:03:41.431Z,0.15
2017-05-07T06:04:36.703Z,0.14
2017-05-07T06:05:30.691Z,0.14
2017-05-07T06:06:19.179Z,0.14
2017-05-07T06:07:12.933Z,0.15
2017-05-07T06:08:06.661Z,0.14
2017-05-07T06:08:56.207Z,0.14
2017-05-07T06:09:44.143Z,0.15
2017-05-07T06:10:32.697Z,0.16
2017-05-07T06:11:26.117Z,0.19
2017-05-07T06:12:32.109Z,0.18
2017-05-07T06:13:21.404Z,0.17
2017-05-07T06:14:14.653Z,0.16
2017-05-07T06:15:08.632Z,0.16
2017-05-07T06:15:57.528Z,0.17
2017-05-07T06:16:51.045Z,0.18
2017-05-07T06:17:45.348Z,0.18
2017-05-07T06:18:40.186Z,0.17
2017-05-07T06:19:27.593Z,0.18
2017-05-07T06:20:22.999Z,0.19
2017-05-07T06:21:10.057Z,0.21
2017-05-07T06:21:59.044Z,0.20
2017-05-07T06:22:58.550Z,0.20
2017-05-07T06:23:47.871Z,0.17
2017-05-07T06:24:41.105Z,0.17
2017-05-07T06:25:28.955Z,0.15
2017-05-07T06:26:23.932Z,0.13
2017-05-07T06:27:17.560Z,0.13
2017-05-07T06:28:12.438Z,0.13
2017-05-07T06:29:06.215Z,0.15
2017-05-07T06:29:54.980Z,0.14
2017-05-07T06:30:54.444Z,0.14
2017-05-07T06:31:43.777Z,0.14
2017-05-07T06:32:37.979Z,0.15
2017-05-07T06:33:25.751Z,0.15
2017-05-07T06:34:14.453Z,0.17
2017-05-07T06:35:14.021Z,0.19
2017-05-07T06:35:56.978Z,0.18
2017-05-07T06:36:50.439Z,0.20
2017-05-07T06:37:33.479Z,0.20
2017-05-07T06:38:27.343Z,0.20
2017-05-07T06:39:22.154Z,0.22
2017-05-07T06:40:15.626Z,0.23
2017-05-07T06:41:15.384Z,0.23
2017-05-07T06:42:09.760Z,0.22
2017-05-07T06:43:09.580Z,0.22
2017-05-07T06:44:04.064Z,0.19
2017-05-07T06:44:58.902Z,0.18
2017-05-07T06:45:46.840Z,0.18
2017-05-07T06:46:40.395Z,0.19
2017-05-07T06:47:40.320Z,0.20
2017-05-07T06:48:34.337Z,0.20
2017-05-07T06:49:23.361Z,0.20
2017-05-07T06:50:11.829Z,0.20
2017-05-07T06:51:06.363Z,0.20
2017-05-07T06:52:05.883Z,0.22
2017-05-07T06:52:54.083Z,0.22
2017-05-07T06:53:47.863Z,0.24
2017-05-07T06:54:30.770Z,0.24
2017-05-07T06:55:19.319Z,0.24
2017-05-07T06:56:12.822Z,0.24
2017-05-07T06:57:07.113Z,0.23
2017-05-07T06:58:00.812Z,0.21
2017-05-07T06:58:55.975Z,0.21
2017-05-07T06:59:55.377Z,0.22
2017-05-07T07:00:49.221Z,0.21
2017-05-07T07:01:38.150Z,0.21
2017-05-07T07:02:31.733Z,0.21
2017-05-07T07:03:26.698Z,0.21
2017-05-07T07:04:32.235Z,0.21
2017-05-07T07:05:27.678Z,0.21
2017-05-07T07:06:21.700Z,0.20
2017-05-07T07:07:09.245Z,0.19
2017-05-07T07:07:58.206Z,0.19
2017-05-07T07:08:52.849Z,0.18
2017-05-07T07:09:47.567Z,0.19
2017-05-07T07:10:47.066Z,0.18
2017-05-07T07:11:35.333Z,0.18
2017-05-07T07:12:28.740Z,0.18
2017-05-07T07:13:17.298Z,0.17
2017-05-07T07:14:10.920Z,0.18
2017-05-07T07:15:11.083Z,0.18
2017-05-07T07:16:04.608Z,0.19
2017-05-07T07:16:58.782Z,0.20
2017-05-07T07:17:53.543Z,0.21
2017-05-07T07:18:48.091Z,0.22
2017-05-07T07:19:47.599Z,0.22
2017-05-07T07:20:41.565Z,0.22
2017-05-07T07:21:36.570Z,0.21
2017-05-07T07:22:31.233Z,0.21
2017-05-07T07:23:24.565Z,0.20
2017-05-07T07:24:18.557Z,0.20
2017-05-07T07:25:13.045Z,0.20
2017-05-07T07:26:12.456Z,0.20
2017-05-07T07:27:06.424Z,0.20
2017-05-07T07:28:00.373Z,0.20
2017-05-07T07:28:54.368Z,0.20
2017-05-07T07:29:54.346Z,0.20
2017-05-07T07:30:42.375Z,0.20
2017-05-07T07:31:42.740Z,0.19
2017-05-07T07:32:37.236Z,0.17
2017-05-07T07:33:31.764Z,0.16
2017-05-07T07:34:25.289Z,0.14
2017-05-07T07:35:13.228Z,0.14
2017-05-07T07:36:07.249Z,0.13
2017-05-07T07:37:01.243Z,0.13
2017-05-07T07:37:55.478Z,0.12
2017-05-07T07:38:44.153Z,0.12
2017-05-07T07:39:32.235Z,0.12
2017-05-07T07:40:20.637Z,0.12
2017-05-07T07:41:14.152Z,0.12
2017-05-07T07:42:08.127Z,0.13
2017-05-07T07:42:56.385Z,0.13
2017-05-07T07:43:45.059Z,0.13
2017-05-07T07:44:39.191Z,0.13
2017-05-07T07:45:32.626Z,0.13
2017-05-07T07:46:20.539Z,0.14
2017-05-07T07:47:14.521Z,0.14
2017-05-07T07:48:04.234Z,0.15
2017-05-07T07:48:58.603Z,0.17
2017-05-07T07:49:46.548Z,0.17
2017-05-07T07:50:40.087Z,0.17
2017-05-07T07:51:35.251Z,0.17
2017-05-07T07:52:29.593Z,0.18
2017-05-07T07:53:23.541Z,0.19
2017-05-07T07:54:23.092Z,0.20
2017-05-07T07:55:17.334Z,0.20
2017-05-07T07:56:05.158Z,0.20
2017-05-07T07:56:53.985Z,0.20
2017-05-07T07:57:43.088Z,0.20
2017-05-07T07:58:42.283Z,0.21
2017-05-07T07:59:31.202Z,0.21
2017-05-07T08:00:25.548Z,0.22
2017-05-07T08:01:19.221Z,0.23
2017-05-07T08:02:12.995Z,0.24
2017-05-07T08:03:07.098Z,0.24
2017-05-07T08:03:55.501Z,0.25
2017-05-07T08:04:49.369Z,0.25
2017-05-07T08:05:32.008Z,0.26
2017-05-07T08:06:19.893Z,0.27
2017-05-07T08:07:19.938Z,0.26
2017-05-07T08:08:13.842Z,0.26
2017-05-07T08:09:09.404Z,0.27
2017-05-07T08:10:08.377Z,0.28
2017-05-07T08:11:02.296Z,0.27
2017-05-07T08:11:56.259Z,0.27
2017-05-07T08:12:50.255Z,0.27
2017-05-07T08:13:50.178Z,0.29
2017-05-07T08:14:45.438Z,0.31
2017-05-07T08:15:44.733Z,0.32
2017-05-07T08:16:38.375Z,0.32
2017-05-07T08:17:26.354Z,0.32
2017-05-07T08:18:14.145Z,0.33
2017-05-07T08:19:03.309Z,0.33
2017-05-07T08:19:52.030Z,0.32
2017-05-07T08:20:51.339Z,0.31
2017-05-07T08:21:51.650Z,0.30
2017-05-07T08:22:45.123Z,0.29
2017-05-07T08:23:45.551Z,0.30
2017-05-07T08:24:40.643Z,0.31
2017-05-07T08:25:34.713Z,0.30
2017-05-07T08:26:23.310Z,0.29
2017-05-07T08:27:10.659Z,0.29
2017-05-07T08:28:11.079Z,0.30
2017-05-07T08:28:59.188Z,0.29
2017-05-07T08:29:54.005Z,0.27
2017-05-07T08:30:41.662Z,0.27
2017-05-07T08:31:42.065Z,0.29
2017-05-07T08:32:41.530Z,0.30
2017-05-07T08:33:35.565Z,0.30
2017-05-07T08:34:24.530Z,0.29
2017-05-07T08:35:18.044Z,0.28
2017-05-07T08:36:13.047Z,0.28
2017-05-07T08:37:01.569Z,0.30
2017-05-07T08:37:50.337Z,0.32
2017-05-07T08:38:44.222Z,0.33
2017-05-07T08:39:26.631Z,0.36
2017-05-07T08:40:20.274Z,0.38
2017-05-07T08:41:20.122Z,0.33
2017-05-07T08:42:14.089Z,0.32
2017-05-07T08:43:08.231Z,0.31
2017-05-07T08:44:02.051Z,0.30
2017-05-07T08:44:56.281Z,0.30
2017-05-07T08:45:49.942Z,0.29
2017-05-07T08:46:43.923Z,0.28
2017-05-07T08:47:33.008Z,0.28
2017-05-07T08:48:26.764Z,0.29
2017-05-07T08:49:14.434Z,0.28
2017-05-07T08:50:08.356Z,0.30
2017-05-07T08:51:03.693Z,0.29
2017-05-07T08:51:50.861Z,0.27
2017-05-07T08:52:44.928Z,0.27
2017-05-07T08:53:33.800Z,0.27
2017-05-07T08:54:27.323Z,0.28
2017-05-07T08:55:21.890Z,0.28
2017-05-07T08:56:09.672Z,0.26
2017-05-07T08:57:03.342Z,0.26
2017-05-07T08:57:52.242Z,0.26
2017-05-07T08:58:47.314Z,0.27
2017-05-07T08:59:40.984Z,0.27
2017-05-07T09:00:34.478Z,0.28
2017-05-07T09:01:29.234Z,0.29
2017-05-07T09:02:22.820Z,0.29
2017-05-07T09:03:23.730Z,0.30
2017-05-07T09:04:17.342Z,0.32
2017-05-07T09:05:17.519Z,0.30
2017-05-07T09:06:11.227Z,0.27
2017-05-07T09:07:05.209Z,0.28
2017-05-07T09:07:53.651Z,0.28
2017-05-07T09:08:47.731Z,0.28
2017-05-07T09:09:36.100Z,0.27
2017-05-07T09:10:35.644Z,0.28
2017-05-07T09:11:29.620Z,0.26
2017-05-07T09:12:24.162Z,0.25
2017-05-07T09:13:11.664Z,0.25
2017-05-07T09:14:07.188Z,0.26
2017-05-07T09:14:55.347Z,0.26
2017-05-07T09:15:42.606Z,0.26
2017-05-07T09:16:31.007Z,0.25
2017-05-07T09:17:18.559Z,0.25
2017-05-07T09:18:08.144Z,0.25
2017-05-07T09:19:01.032Z,0.24
2017-05-07T09:20:01.042Z,0.23
2017-05-07T09:20:56.054Z,0.23
2017-05-07T09:21:50.539Z,0.23
2017-05-07T09:22:50.081Z,0.24
2017-05-07T09:23:39.245Z,0.26
2017-05-07T09:24:32.572Z,0.30
2017-05-07T09:25:26.526Z,0.33
2017-05-07T09:26:20.509Z,0.35
2017-05-07T09:27:09.514Z,0.34
2017-05-07T09:28:03.078Z,0.35
2017-05-07T09:28:51.999Z,0.36
2017-05-07T09:29:45.529Z,0.35
2017-05-07T09:30:34.537Z,0.34
2017-05-07T09:31:34.546Z,0.33
2017-05-07T09:32:22.043Z,0.33
2017-05-07T09:33:10.999Z,0.33
2017-05-07T09:34:04.494Z,0.32
2017-05-07T09:34:58.529Z,0.32
2017-05-07T09:35:52.799Z,0.36
2017-05-07T09:36:52.408Z,0.40
2017-05-07T09:37:41.812Z,0.41
2017-05-07T09:38:34.922Z,0.42
2017-05-07T09:39:30.129Z,0.42
2017-05-07T09:40:29.761Z,0.43
2017-05-07T09:41:23.411Z,0.39
2017-05-07T09:42:23.556Z,0.41
2017-05-07T09:43:11.618Z,0.42
2017-05-07T09:44:06.431Z,0.42
2017-05-07T09:45:00.430Z,0.44
2017-05-07T09:45:43.286Z,0.45
2017-05-07T09:46:36.396Z,0.45
2017-05-07T09:47:36.380Z,0.42
2017-05-07T09:48:30.323Z,0.46
2017-05-07T09:49:24.374Z,0.61
2017-05-07T09:50:18.215Z,0.65
2017-05-07T09:51:12.255Z,0.54
2017-05-07T09:52:06.270Z,0.47
2017-05-07T09:53:07.390Z,0.54
2017-05-07T09:54:06.911Z,0.68
2017-05-07T09:55:01.167Z,0.56
2017-05-07T09:55:43.646Z,0.75
2017-05-07T09:56:31.213Z,0.46
2017-05-07T09:57:20.202Z,0.40
2017-05-07T09:58:13.741Z,0.40
2017-05-07T09:59:02.731Z,0.43
2017-05-07T09:59:51.697Z,0.46
2017-05-07T10:00:39.823Z,0.45
2017-05-07T10:01:33.346Z,0.47
2017-05-07T10:02:28.600Z,0.52
2017-05-07T10:03:21.850Z,0.51
2017-05-07T10:04:16.274Z,0.48
2017-05-07T10:05:04.282Z,0.46
2017-05-07T10:05:58.783Z,0.46
2017-05-07T10:06:46.626Z,0.47
2017-05-07T10:07:35.299Z,0.50
2017-05-07T10:08:29.833Z,0.52
2017-05-07T10:09:24.357Z,0.58
2017-05-07T10:10:17.901Z,0.69
2017-05-07T10:11:11.894Z,0.89
2017-05-07T10:11:59.889Z,0.75
2017-05-07T10:12:49.405Z,0.72
2017-05-07T10:13:43.402Z,0.72
2017-05-07T10:14:37.954Z,0.94
2017-05-07T10:15:37.812Z,0.74
2017-05-07T10:16:31.784Z,0.59
2017-05-07T10:17:31.807Z,0.63
2017-05-07T10:18:20.923Z,0.59
2017-05-07T10:19:19.926Z,0.52
2017-05-07T10:20:13.922Z,0.89
2017-05-07T10:21:02.892Z,0.87
2017-05-07T10:21:56.840Z,0.61
2017-05-07T10:22:45.455Z,0.88
2017-05-07T10:23:46.419Z,0.60
2017-05-07T10:24:41.048Z,0.57
2017-05-07T10:25:29.154Z,0.49
2017-05-07T10:26:23.622Z,0.44
2017-05-07T10:27:24.743Z,0.40
2017-05-07T10:28:17.708Z,0.37
2017-05-07T10:29:12.400Z,0.34
2017-05-07T10:30:01.052Z,0.31
2017-05-07T10:30:49.427Z,0.29
2017-05-07T10:31:38.233Z,0.29
2017-05-07T10:32:31.440Z,0.31
2017-05-07T10:33:26.817Z,0.33
2017-05-07T10:34:20.318Z,0.34
2017-05-07T10:35:14.820Z,0.36
2017-05-07T10:36:14.677Z,0.40
2017-05-07T10:37:03.760Z,0.43
2017-05-07T10:37:52.320Z,0.54
2017-05-07T10:38:45.839Z,0.50
2017-05-07T10:39:45.835Z,0.70
2017-05-07T10:40:34.889Z,0.47
2017-05-07T10:41:22.378Z,0.44
2017-05-07T10:42:11.378Z,0.43
2017-05-07T10:43:05.870Z,0.40
2017-05-07T10:43:53.404Z,0.36
2017-05-07T10:44:48.377Z,0.35
2017-05-07T10:45:36.916Z,0.36
2017-05-07T10:46:25.432Z,0.37
2017-05-07T10:47:25.017Z,0.37
2017-05-07T10:48:14.037Z,0.37
2017-05-07T10:49:01.637Z,0.36
2017-05-07T10:49:50.504Z,0.34
2017-05-07T10:50:45.077Z,0.32
2017-05-07T10:51:38.673Z,0.32
2017-05-07T10:52:38.554Z,0.34
2017-05-07T10:53:32.454Z,0.37
2017-05-07T10:54:27.484Z,0.40
2017-05-07T10:55:20.879Z,0.50
2017-05-07T10:56:14.836Z,0.58
2017-05-07T10:57:09.990Z,0.53
2017-05-07T10:58:09.636Z,0.51
2017-05-07T10:58:57.022Z,0.51
2017-05-07T10:59:46.095Z,0.54
2017-05-07T11:00:40.583Z,0.58
2017-05-07T11:01:35.089Z,0.66
2017-05-07T11:02:30.080Z,0.71
2017-05-07T11:03:23.161Z,0.64
2017-05-07T11:04:12.926Z,0.57
2017-05-07T11:05:06.441Z,0.52
2017-05-07T11:05:53.703Z,0.47
2017-05-07T11:06:42.088Z,0.46
2017-05-07T11:07:42.086Z,0.75
2017-05-07T11:08:30.071Z,0.47
2017-05-07T11:09:29.534Z,0.49
2017-05-07T11:10:18.934Z,0.72
2017-05-07T11:11:18.289Z,0.47
2017-05-07T11:12:06.509Z,0.42
2017-05-07T11:13:01.626Z,0.43
2017-05-07T11:13:55.034Z,0.63
2017-05-07T11:14:44.220Z,0.70
2017-05-07T11:15:37.173Z,0.53
2017-05-07T11:16:31.170Z,0.58
2017-05-07T11:17:25.130Z,0.76
2017-05-07T11:18:20.085Z,0.71
2017-05-07T11:19:08.049Z,0.41
2017-05-07T11:20:02.001Z,0.38
2017-05-07T11:20:50.075Z,0.37
2017-05-07T11:21:38.971Z,0.38
2017-05-07T11:22:33.126Z,0.40
2017-05-07T11:23:28.088Z,0.42
2017-05-07T11:24:22.095Z,0.45
2017-05-07T11:25:16.203Z,0.49
2017-05-07T11:26:05.209Z,0.75
2017-05-07T11:26:58.206Z,0.78
2017-05-07T11:27:52.223Z,0.81
2017-05-07T11:28:41.201Z,0.84
2017-05-07T11:29:35.759Z,0.83
2017-05-07T11:30:35.430Z,0.84
2017-05-07T11:31:24.303Z,0.86
2017-05-07T11:32:18.844Z,0.86
2017-05-07T11:33:07.344Z,0.85
2017-05-07T11:34:02.055Z,0.76
2017-05-07T11:35:02.014Z,0.74
2017-05-07T11:35:55.945Z,0.75
2017-05-07T11:36:52.031Z,0.73
2017-05-07T11:37:38.539Z,0.49
2017-05-07T11:38:27.521Z,0.37
2017-05-07T11:39:21.061Z,0.31
2017-05-07T11:40:16.025Z,0.28
2017-05-07T11:41:04.318Z,0.27
2017-05-07T11:41:57.761Z,0.28
2017-05-07T11:42:52.000Z,0.28
2017-05-07T11:43:46.023Z,0.29
2017-05-07T11:44:39.973Z,0.30
2017-05-07T11:45:34.058Z,0.31
2017-05-07T11:46:28.013Z,0.32
2017-05-07T11:47:16.983Z,0.33
2017-05-07T11:48:11.464Z,0.34
2017-05-07T11:49:04.990Z,0.34
2017-05-07T11:50:06.006Z,0.36
2017-05-07T11:50:59.532Z,0.36
2017-05-07T11:51:53.525Z,0.37
2017-05-07T11:52:41.592Z,0.38
2017-05-07T11:53:35.484Z,0.38
2017-05-07T11:54:29.476Z,0.38
2017-05-07T11:55:23.461Z,0.38
2017-05-07T11:56:12.441Z,0.37
2017-05-07T11:57:05.904Z,0.36
2017-05-07T11:57:54.989Z,0.35
2017-05-07T11:58:54.517Z,0.36
2017-05-07T11:59:48.495Z,0.37
2017-05-07T12:00:43.431Z,0.39